createdAt,value
2022-09-27T00:00:49.060Z,90.97
2022-09-27T00:03:06.073Z,90.90
2022-09-27T00:05:23.034Z,89.70
2022-09-27T00:07:40.121Z,90.40
2022-09-27T00:09:56.995Z,90.71
2022-09-27T00:12:13.959Z,91.13
2022-09-27T00:14:31.688Z,90.86
2022-09-27T00:16:48.871Z,90.85
2022-09-27T00:19:07.880Z,90.46
2022-09-27T00:21:24.778Z,91.26
2022-09-27T00:23:42.112Z,90.36
2022-09-27T00:25:59.151Z,90.04
2022-09-27T00:28:16.412Z,90.61
2022-09-27T00:30:33.568Z,90.87
2022-09-27T00:32:50.874Z,90.04
2022-09-27T00:35:07.986Z,90.07
2022-09-27T00:37:25.319Z,89.97
2022-09-27T00:39:42.591Z,89.61
2022-09-27T00:41:59.544Z,88.92
2022-09-27T00:44:17.702Z,89.02
2022-09-27T00:46:34.850Z,87.88
2022-09-27T00:48:51.813Z,88.09
2022-09-27T00:51:08.857Z,88.10
2022-09-27T00:53:28.300Z,88.38
2022-09-27T00:55:45.533Z,87.79
2022-09-27T00:58:02.845Z,88.00
2022-09-27T01:00:19.851Z,88.63
2022-09-27T01:02:37.347Z,88.41
2022-09-27T01:04:54.381Z,87.16
2022-09-27T01:07:11.417Z,87.46
2022-09-27T01:09:28.744Z,88.11
2022-09-27T01:11:45.816Z,87.52
2022-09-27T01:14:03.043Z,87.30
2022-09-27T01:16:20.544Z,87.35
2022-09-27T01:18:37.880Z,87.41
2022-09-27T01:20:55.218Z,87.24
2022-09-27T01:23:12.477Z,87.35
2022-09-27T01:28:03.929Z,86.57
2022-09-27T01:30:21.893Z,86.43
2022-09-27T01:32:38.937Z,86.43
2022-09-27T01:34:55.950Z,86.08
2022-09-27T01:37:15.305Z,85.85
2022-09-27T01:39:32.621Z,85.71
2022-09-27T01:41:49.855Z,85.23
2022-09-27T01:44:07.187Z,84.82
2022-09-27T01:46:25.152Z,84.71
2022-09-27T01:48:42.452Z,84.33
2022-09-27T01:50:59.616Z,84.33
2022-09-27T01:53:16.844Z,83.63
2022-09-27T01:55:34.041Z,83.43
2022-09-27T01:57:52.265Z,83.98
2022-09-27T02:00:10.470Z,84.10
2022-09-27T02:02:29.743Z,83.04
2022-09-27T02:04:47.081Z,83.65
2022-09-27T02:07:04.040Z,84.00
2022-09-27T02:09:21.589Z,84.18
2022-09-27T02:11:38.631Z,83.94
2022-09-27T02:13:55.533Z,83.23
2022-09-27T02:16:12.585Z,83.10
2022-09-27T02:18:29.947Z,82.83
2022-09-27T02:20:47.900Z,83.03
2022-09-27T02:23:04.921Z,83.32
2022-09-27T02:25:21.937Z,82.91
2022-09-27T02:27:42.610Z,83.47
2022-09-27T02:29:59.774Z,83.55
2022-09-27T02:32:18.067Z,83.60
2022-09-27T02:34:37.580Z,82.64
2022-09-27T02:36:57.503Z,82.01
2022-09-27T02:39:14.830Z,83.10
2022-09-27T02:41:32.626Z,82.37
2022-09-27T02:43:49.999Z,82.55
2022-09-27T02:46:07.188Z,82.44
2022-09-27T02:48:24.267Z,82.63
2022-09-27T02:50:41.512Z,81.67
2022-09-27T02:52:58.811Z,81.40
2022-09-27T02:55:16.878Z,81.61
2022-09-27T02:57:36.008Z,83.16
2022-09-27T02:59:52.924Z,82.42
2022-09-27T03:02:13.546Z,83.21
2022-09-27T03:04:31.325Z,83.15
2022-09-27T03:06:48.250Z,83.52
2022-09-27T03:09:05.311Z,83.37
2022-09-27T03:11:22.593Z,83.27
2022-09-27T03:13:55.895Z,84.01
2022-09-27T03:16:19.040Z,83.80
2022-09-27T03:18:38.067Z,84.48
2022-09-27T03:20:54.996Z,84.22
2022-09-27T03:23:12.434Z,84.01
2022-09-27T03:25:29.355Z,83.79
2022-09-27T03:27:46.721Z,83.44
2022-09-27T03:30:05.333Z,83.59
2022-09-27T03:32:22.579Z,83.07
2022-09-27T03:34:39.864Z,82.91
2022-09-27T03:36:58.439Z,81.79
2022-09-27T03:39:15.779Z,82.39
2022-09-27T03:41:33.904Z,81.89
2022-09-27T03:43:51.509Z,82.06
2022-09-27T03:46:08.472Z,82.19
2022-09-27T03:48:28.112Z,82.67
2022-09-27T03:50:45.680Z,82.68
2022-09-27T03:53:02.817Z,82.38
2022-09-27T03:55:20.160Z,81.30
2022-09-27T03:57:37.227Z,82.16
2022-09-27T03:59:54.206Z,82.29
2022-09-27T04:02:11.571Z,82.84
2022-09-27T04:04:29.967Z,82.20
2022-09-27T04:06:46.909Z,82.87
2022-09-27T04:09:04.269Z,82.79
2022-09-27T04:11:21.296Z,81.76
2022-09-27T04:13:38.309Z,81.15
2022-09-27T04:15:55.361Z,82.42
2022-09-27T04:18:12.517Z,81.76
2022-09-27T04:20:29.478Z,81.31
2022-09-27T04:22:46.731Z,81.82
2022-09-27T04:25:04.719Z,82.68
2022-09-27T04:27:22.454Z,82.50
2022-09-27T04:29:40.358Z,81.93
2022-09-27T04:31:57.345Z,82.32
2022-09-27T04:34:14.585Z,82.61
2022-09-27T04:36:31.564Z,81.82
2022-09-27T04:38:49.009Z,83.04
2022-09-27T04:41:05.984Z,82.86
2022-09-27T04:43:24.024Z,82.83
2022-09-27T04:45:41.390Z,83.10
2022-09-27T04:47:58.396Z,83.33
2022-09-27T04:50:16.614Z,82.73
2022-09-27T04:52:34.630Z,81.07
2022-09-27T04:54:51.513Z,81.88
2022-09-27T04:57:08.614Z,80.86
2022-09-27T04:59:25.853Z,82.14
2022-09-27T05:01:43.769Z,81.63
2022-09-27T05:04:01.127Z,82.08
2022-09-27T05:06:18.074Z,81.58
2022-09-27T05:08:35.078Z,82.05
2022-09-27T05:10:53.532Z,83.09
2022-09-27T05:13:10.528Z,83.29
2022-09-27T05:15:28.500Z,82.28
2022-09-27T05:17:45.554Z,82.38
2022-09-27T05:20:02.485Z,83.32
2022-09-27T05:22:19.533Z,82.03
2022-09-27T05:24:36.801Z,81.95
2022-09-27T05:26:55.662Z,81.58
2022-09-27T05:29:12.682Z,80.72
2022-09-27T05:31:29.891Z,82.10
2022-09-27T05:33:46.854Z,80.66
2022-09-27T05:36:04.108Z,80.39
2022-09-27T05:38:21.282Z,81.63
2022-09-27T05:40:42.006Z,81.39
2022-09-27T05:42:59.649Z,80.34
2022-09-27T05:45:16.865Z,79.32
2022-09-27T05:47:35.844Z,79.48
2022-09-27T05:49:54.089Z,79.97
2022-09-27T05:52:15.080Z,79.53
2022-09-27T05:54:35.204Z,80.13
2022-09-27T05:56:53.174Z,80.60
2022-09-27T05:59:12.617Z,80.02
2022-09-27T06:01:29.962Z,80.17
2022-09-27T06:03:47.223Z,80.24
2022-09-27T06:06:04.486Z,80.64
2022-09-27T06:08:21.327Z,80.74
2022-09-27T06:10:38.327Z,79.40
2022-09-27T06:12:56.800Z,80.31
2022-09-27T06:15:14.187Z,80.16
2022-09-27T06:17:31.793Z,79.33
2022-09-27T06:19:49.587Z,80.62
2022-09-27T06:22:06.870Z,79.73
2022-09-27T06:24:25.083Z,79.72
2022-09-27T06:26:42.079Z,79.82
2022-09-27T06:28:59.034Z,79.51
2022-09-27T06:31:16.336Z,79.39
2022-09-27T06:33:33.606Z,79.67
2022-09-27T06:35:50.651Z,79.51
2022-09-27T06:38:07.670Z,79.35
2022-09-27T06:40:25.921Z,79.63
2022-09-27T06:42:43.278Z,80.32
2022-09-27T06:45:00.265Z,80.58
2022-09-27T06:47:17.282Z,80.34
2022-09-27T06:49:35.508Z,80.43
2022-09-27T06:51:52.488Z,79.82
2022-09-27T06:54:09.508Z,80.26
2022-09-27T06:56:26.511Z,79.83
2022-09-27T06:58:44.884Z,79.88
2022-09-27T07:01:02.383Z,79.67
2022-09-27T07:03:19.416Z,79.36
2022-09-27T07:05:36.398Z,79.13
2022-09-27T07:07:53.391Z,78.08
2022-09-27T07:10:10.575Z,78.45
2022-09-27T07:12:27.861Z,78.03
2022-09-27T07:14:44.853Z,77.95
2022-09-27T07:17:02.812Z,78.52
2022-09-27T07:19:20.450Z,77.42
2022-09-27T07:21:37.740Z,76.67
2022-09-27T07:23:54.904Z,76.72
2022-09-27T07:26:11.810Z,76.09
2022-09-27T07:28:29.144Z,75.88
2022-09-27T07:30:46.158Z,75.10
2022-09-27T07:33:03.186Z,74.57
2022-09-27T07:35:20.404Z,73.50
2022-09-27T07:37:38.447Z,74.48
2022-09-27T07:39:56.708Z,73.96
2022-09-27T07:42:14.660Z,72.24
2022-09-27T07:44:31.632Z,72.76
2022-09-27T07:46:48.663Z,72.63
2022-09-27T07:49:05.575Z,72.83
2022-09-27T07:51:22.524Z,74.23
2022-09-27T07:53:39.747Z,74.24
2022-09-27T07:55:56.989Z,74.08
2022-09-27T07:58:15.017Z,73.48
2022-09-27T08:00:31.886Z,73.27
2022-09-27T08:02:49.086Z,73.04
2022-09-27T08:05:07.258Z,73.01
2022-09-27T08:07:24.877Z,73.02
2022-09-27T08:09:42.184Z,73.53
2022-09-27T08:11:59.430Z,72.92
2022-09-27T08:14:16.627Z,72.99
2022-09-27T08:16:33.954Z,72.74
2022-09-27T08:18:51.073Z,71.20
2022-09-27T08:21:08.416Z,71.92
2022-09-27T08:23:25.722Z,71.91
2022-09-27T08:25:42.800Z,72.90
2022-09-27T08:27:59.966Z,72.57
2022-09-27T08:30:17.166Z,72.12
2022-09-27T08:32:34.214Z,71.23
2022-09-27T08:34:51.496Z,71.06
2022-09-27T08:37:08.878Z,70.54
2022-09-27T08:39:25.918Z,70.49
2022-09-27T08:41:42.967Z,68.53
2022-09-27T08:44:00.062Z,69.22
2022-09-27T08:46:17.886Z,70.02
2022-09-27T08:48:36.206Z,68.94
2022-09-27T08:50:53.500Z,67.97
2022-09-27T08:53:11.148Z,69.18
2022-09-27T08:55:28.252Z,68.50
2022-09-27T08:57:45.252Z,68.61
2022-09-27T09:00:02.450Z,69.95
2022-09-27T09:02:19.557Z,69.53
2022-09-27T09:04:36.761Z,69.71
2022-09-27T09:06:54.004Z,68.69
2022-09-27T09:09:12.026Z,68.95
2022-09-27T09:11:29.060Z,69.10
2022-09-27T09:13:46.375Z,69.02
2022-09-27T09:16:04.260Z,68.09
2022-09-27T09:18:21.282Z,68.25
2022-09-27T09:20:38.903Z,68.38
2022-09-27T09:22:56.148Z,68.15
2022-09-27T09:25:14.430Z,69.89
2022-09-27T09:27:31.768Z,70.62
2022-09-27T09:29:48.811Z,70.05
2022-09-27T09:32:05.868Z,69.97
2022-09-27T09:34:23.202Z,68.97
2022-09-27T09:36:40.540Z,68.42
2022-09-27T09:38:57.776Z,68.91
2022-09-27T09:41:16.179Z,68.78
2022-09-27T09:43:34.513Z,68.50
2022-09-27T09:45:52.143Z,68.23
2022-09-27T09:48:09.482Z,70.54
2022-09-27T09:50:26.538Z,69.39
2022-09-27T09:52:43.491Z,70.17
2022-09-27T09:55:00.413Z,68.01
2022-09-27T09:57:17.450Z,68.86
2022-09-27T09:59:34.702Z,69.14
2022-09-27T10:01:51.817Z,67.52
2022-09-27T10:04:08.887Z,66.12
2022-09-27T10:06:26.000Z,67.09
2022-09-27T10:08:43.256Z,69.14
2022-09-27T10:11:00.847Z,69.47
2022-09-27T10:13:17.876Z,68.62
2022-09-27T10:15:35.123Z,67.65
2022-09-27T10:17:52.503Z,68.68
2022-09-27T10:20:09.827Z,69.05
2022-09-27T10:22:27.078Z,69.37
2022-09-27T10:24:44.344Z,67.72
2022-09-27T10:27:01.401Z,67.02
2022-09-27T10:29:18.714Z,68.31
2022-09-27T10:31:36.002Z,66.58
2022-09-27T10:33:54.257Z,66.06
2022-09-27T10:36:11.433Z,66.98
2022-09-27T10:38:28.661Z,65.85
2022-09-27T10:40:46.236Z,67.00
2022-09-27T10:43:03.486Z,66.50
2022-09-27T10:45:20.755Z,65.68
2022-09-27T10:47:37.751Z,66.21
2022-09-27T10:49:54.766Z,64.38
2022-09-27T10:52:13.592Z,64.37
2022-09-27T10:54:30.878Z,63.22
2022-09-27T10:56:48.239Z,64.52
2022-09-27T10:59:05.244Z,66.09
2022-09-27T11:01:22.627Z,64.87
2022-09-27T11:03:39.954Z,65.82
2022-09-27T11:05:57.179Z,63.65
2022-09-27T11:08:14.458Z,63.71
2022-09-27T11:10:36.891Z,63.31
2022-09-27T11:12:54.603Z,64.73
2022-09-27T11:15:12.087Z,66.45
2022-09-27T11:17:29.060Z,67.08
2022-09-27T11:19:45.994Z,69.01
2022-09-27T11:22:03.222Z,70.95
2022-09-27T11:24:20.157Z,72.90
2022-09-27T11:26:37.723Z,74.10
2022-09-27T11:28:55.000Z,74.07
2022-09-27T11:31:13.644Z,74.52
2022-09-27T11:33:33.375Z,74.96
2022-09-27T11:35:50.330Z,75.25
2022-09-27T11:38:07.218Z,74.15
2022-09-27T11:40:24.387Z,75.89
2022-09-27T11:42:41.796Z,75.26
2022-09-27T11:45:26.788Z,74.89
2022-09-27T11:47:36.988Z,75.79
2022-09-27T11:49:54.305Z,73.46
2022-09-27T11:52:11.757Z,74.66
2022-09-27T11:54:29.679Z,72.89
2022-09-27T11:56:47.788Z,71.58
2022-09-27T11:59:04.669Z,71.53
2022-09-27T12:01:22.541Z,70.55
2022-09-27T12:03:39.860Z,70.55
2022-09-27T12:05:59.870Z,68.11
2022-09-27T12:08:18.421Z,67.76
2022-09-27T12:10:38.119Z,66.04
2022-09-27T12:12:55.117Z,65.77
2022-09-27T12:15:12.178Z,63.63
2022-09-27T12:17:30.220Z,61.90
2022-09-27T12:19:47.312Z,64.60
2022-09-27T12:22:04.439Z,63.21
2022-09-27T12:24:21.728Z,64.67
2022-09-27T12:26:40.897Z,64.31
2022-09-27T12:28:57.883Z,65.39
2022-09-27T12:31:28.937Z,65.47
2022-09-27T12:33:47.050Z,64.46
2022-09-27T12:36:04.318Z,62.86
2022-09-27T12:38:21.435Z,61.55
2022-09-27T12:40:39.941Z,61.69
2022-09-27T12:42:57.610Z,60.87
2022-09-27T12:45:14.533Z,62.37
2022-09-27T12:47:32.643Z,63.12
2022-09-27T12:49:49.620Z,64.86
2022-09-27T12:52:07.034Z,62.99
2022-09-27T12:54:25.475Z,63.64
2022-09-27T12:56:42.574Z,64.05
2022-09-27T12:59:00.889Z,64.72
2022-09-27T13:01:19.238Z,67.57
2022-09-27T13:03:43.136Z,67.64
2022-09-27T13:06:02.648Z,68.55
2022-09-27T13:08:19.646Z,67.60
2022-09-27T13:10:38.012Z,67.94
2022-09-27T13:12:56.235Z,67.72
2022-09-27T13:15:13.328Z,68.88
2022-09-27T13:17:30.699Z,68.15
2022-09-27T13:19:48.062Z,69.48
2022-09-27T13:22:05.852Z,70.24
2022-09-27T13:24:23.336Z,71.54
2022-09-27T13:26:40.352Z,71.35
2022-09-27T13:28:57.248Z,72.47
2022-09-27T13:31:16.407Z,73.23
2022-09-27T13:33:33.527Z,73.62
2022-09-27T13:35:51.613Z,73.47
2022-09-27T13:38:08.878Z,73.46
2022-09-27T13:40:26.284Z,73.33
2022-09-27T13:42:43.645Z,72.34
2022-09-27T13:45:04.192Z,71.41
2022-09-27T13:47:21.213Z,70.61
2022-09-27T13:49:38.826Z,72.18
2022-09-27T13:51:55.748Z,72.49
2022-09-27T13:54:12.852Z,72.48
2022-09-27T13:56:30.457Z,73.49
2022-09-27T13:58:48.499Z,74.65
2022-09-27T14:01:05.797Z,74.01
2022-09-27T14:03:24.200Z,75.17
2022-09-27T14:05:41.448Z,73.83
2022-09-27T14:07:58.748Z,73.41
2022-09-27T14:10:15.728Z,72.72
2022-09-27T14:12:33.600Z,71.33
2022-09-27T14:14:50.637Z,70.93
2022-09-27T14:17:10.150Z,71.75
2022-09-27T14:19:27.560Z,71.67
2022-09-27T14:21:44.852Z,71.05
2022-09-27T14:24:02.091Z,71.51
2022-09-27T14:26:19.086Z,71.99
2022-09-27T14:28:37.496Z,70.29
2022-09-27T14:30:55.638Z,71.57
2022-09-27T14:33:12.700Z,69.66
2022-09-27T14:35:30.065Z,68.61
2022-09-27T14:37:48.048Z,66.39
2022-09-27T14:40:05.092Z,66.32
2022-09-27T14:42:22.197Z,66.06
2022-09-27T14:44:39.436Z,64.67
2022-09-27T14:46:56.455Z,62.90
2022-09-27T14:49:13.470Z,63.49
2022-09-27T14:51:30.458Z,62.57
2022-09-27T14:53:48.417Z,64.76
2022-09-27T14:56:05.444Z,65.55
2022-09-27T14:58:45.597Z,65.33
2022-09-27T15:00:59.400Z,66.69
2022-09-27T15:03:17.830Z,66.31
2022-09-27T15:05:35.415Z,66.01
2022-09-27T15:07:52.413Z,66.53
2022-09-27T15:10:09.665Z,66.98
2022-09-27T15:12:26.688Z,67.70
2022-09-27T15:14:43.788Z,67.65
2022-09-27T15:17:00.777Z,67.90
2022-09-27T15:19:17.882Z,64.92
2022-09-27T15:21:35.434Z,65.75
2022-09-27T15:23:52.840Z,63.60
2022-09-27T15:26:10.122Z,65.80
2022-09-27T15:28:27.256Z,65.83
2022-09-27T15:30:44.535Z,66.64
2022-09-27T15:33:01.735Z,66.69
2022-09-27T15:35:19.745Z,69.00
2022-09-27T15:37:36.740Z,68.92
2022-09-27T15:39:53.752Z,68.23
2022-09-27T15:42:10.811Z,66.73
2022-09-27T15:44:29.182Z,68.36
2022-09-27T15:46:48.903Z,70.93
2022-09-27T15:49:06.131Z,70.02
2022-09-27T15:51:23.288Z,71.33
2022-09-27T15:53:40.783Z,72.18
2022-09-27T15:55:58.865Z,73.00
2022-09-27T15:58:15.861Z,73.36
2022-09-27T16:00:32.888Z,73.30
2022-09-27T16:02:50.159Z,72.95
2022-09-27T16:05:07.103Z,72.46
2022-09-27T16:07:24.443Z,71.94
2022-09-27T16:09:41.443Z,73.35
2022-09-27T16:11:58.672Z,70.26
2022-09-27T16:14:15.584Z,68.78
2022-09-27T16:16:33.631Z,69.85
2022-09-27T16:18:50.860Z,69.54
2022-09-27T16:21:08.112Z,70.90
2022-09-27T16:23:25.167Z,71.65
2022-09-27T16:25:42.123Z,72.26
2022-09-27T16:27:59.316Z,73.96
2022-09-27T16:30:17.296Z,76.69
2022-09-27T16:32:34.387Z,77.60
2022-09-27T16:34:51.559Z,78.11
2022-09-27T16:37:08.760Z,78.40
2022-09-27T16:39:26.128Z,78.66
2022-09-27T16:41:43.047Z,78.99
2022-09-27T16:43:59.945Z,79.42
2022-09-27T16:46:17.670Z,80.25
2022-09-27T16:48:34.935Z,80.48
2022-09-27T16:50:52.286Z,80.29
2022-09-27T16:53:10.449Z,80.64
2022-09-27T16:55:27.689Z,81.18
2022-09-27T16:57:45.674Z,81.44
2022-09-27T17:00:02.650Z,80.80
2022-09-27T17:02:20.731Z,81.20
2022-09-27T17:04:37.810Z,80.87
2022-09-27T17:06:54.884Z,80.35
2022-09-27T17:09:11.886Z,80.27
2022-09-27T17:11:28.862Z,80.79
2022-09-27T17:13:45.801Z,80.45
2022-09-27T17:16:02.902Z,82.04
2022-09-27T17:18:20.191Z,81.33
2022-09-27T17:20:38.161Z,80.97
2022-09-27T17:22:55.219Z,81.51
2022-09-27T17:25:12.396Z,81.26
2022-09-27T17:27:29.431Z,82.57
2022-09-27T17:29:46.387Z,82.64
2022-09-27T17:32:03.276Z,81.72
2022-09-27T17:34:20.290Z,82.99
2022-09-27T17:36:38.274Z,82.78
2022-09-27T17:38:55.451Z,82.01
2022-09-27T17:41:12.857Z,81.73
2022-09-27T17:43:29.784Z,81.78
2022-09-27T17:45:46.831Z,82.85
2022-09-27T17:48:07.834Z,83.01
2022-09-27T17:50:27.856Z,81.97
2022-09-27T17:52:44.932Z,83.43
2022-09-27T17:55:07.249Z,82.82
2022-09-27T17:57:24.508Z,83.41
2022-09-27T17:59:41.843Z,83.11
2022-09-27T18:01:59.136Z,83.52
2022-09-27T18:04:16.514Z,82.94
2022-09-27T18:06:33.543Z,83.37
2022-09-27T18:08:50.579Z,83.53
2022-09-27T18:11:07.936Z,83.91
2022-09-27T18:13:25.104Z,83.98
2022-09-27T18:15:42.121Z,83.60
2022-09-27T18:18:02.422Z,83.94
2022-09-27T18:20:19.483Z,84.05
2022-09-27T18:22:36.695Z,84.19
2022-09-27T18:24:53.625Z,85.13
2022-09-27T18:27:10.820Z,84.81
2022-09-27T18:29:28.864Z,84.37
2022-09-27T18:31:48.774Z,84.33
2022-09-27T18:34:06.452Z,84.55
2022-09-27T18:36:23.545Z,84.59
2022-09-27T18:38:40.593Z,84.44
2022-09-27T18:40:57.698Z,84.24
2022-09-27T18:43:14.712Z,84.22
2022-09-27T18:45:32.557Z,84.31
2022-09-27T18:47:49.830Z,84.63
2022-09-27T18:50:07.131Z,85.07
2022-09-27T18:52:25.057Z,84.74
2022-09-27T18:54:42.099Z,84.83
2022-09-27T18:56:59.053Z,85.02
2022-09-27T18:59:16.214Z,85.21
2022-09-27T19:01:34.343Z,84.99
2022-09-27T19:03:51.312Z,85.88
2022-09-27T19:06:08.570Z,84.86
2022-09-27T19:08:25.827Z,85.53
2022-09-27T19:10:42.849Z,85.63
2022-09-27T19:13:01.056Z,85.75
2022-09-27T19:15:25.891Z,85.65
2022-09-27T19:17:42.957Z,85.73
2022-09-27T19:20:00.301Z,85.60
2022-09-27T19:22:17.288Z,85.76
2022-09-27T19:24:35.175Z,85.84
2022-09-27T19:26:52.491Z,86.51
2022-09-27T19:29:09.527Z,86.49
2022-09-27T19:31:27.039Z,86.63
2022-09-27T19:33:44.027Z,86.12
2022-09-27T19:36:01.066Z,85.96
2022-09-27T19:38:18.579Z,86.08
2022-09-27T19:40:35.874Z,85.86
2022-09-27T19:42:52.877Z,85.83
2022-09-27T19:45:11.679Z,85.78
2022-09-27T19:47:31.148Z,85.78
2022-09-27T19:49:48.175Z,86.23
2022-09-27T19:52:06.388Z,85.79
2022-09-27T19:54:23.431Z,86.38
2022-09-27T19:56:40.914Z,86.79
2022-09-27T19:59:01.675Z,86.87
2022-09-27T20:01:22.272Z,87.15
2022-09-27T20:03:39.490Z,86.81
2022-09-27T20:05:56.705Z,87.07
2022-09-27T20:08:14.936Z,87.20
2022-09-27T20:10:33.194Z,87.28
2022-09-27T20:12:50.408Z,87.55
2022-09-27T20:15:07.474Z,87.28
2022-09-27T20:17:24.487Z,87.25
2022-09-27T20:19:41.448Z,87.24
2022-09-27T20:21:58.447Z,86.98
2022-09-27T20:24:15.749Z,87.28
2022-09-27T20:26:34.039Z,87.87
2022-09-27T20:28:51.009Z,87.44
2022-09-27T20:31:08.340Z,87.24
2022-09-27T20:33:25.344Z,87.28
2022-09-27T20:35:43.370Z,87.14
2022-09-27T20:38:01.214Z,87.24
2022-09-27T20:40:18.165Z,87.24
2022-09-27T20:42:35.136Z,87.28
2022-09-27T20:44:54.514Z,87.20
2022-09-27T20:47:11.614Z,86.57
2022-09-27T20:49:28.592Z,86.30
2022-09-27T20:51:48.094Z,86.88
2022-09-27T20:54:06.353Z,86.75
2022-09-27T20:56:23.288Z,86.91
2022-09-27T20:58:48.549Z,87.07
2022-09-27T21:01:05.913Z,87.34
2022-09-27T21:03:22.903Z,87.25
2022-09-27T21:05:39.919Z,87.66
2022-09-27T21:07:57.871Z,87.39
2022-09-27T21:10:14.827Z,87.19
2022-09-27T21:12:31.949Z,87.24
2022-09-27T21:14:49.857Z,87.20
2022-09-27T21:17:07.101Z,87.47
2022-09-27T21:19:25.101Z,87.61
2022-09-27T21:21:42.084Z,87.86
2022-09-27T21:24:00.290Z,87.87
2022-09-27T21:26:17.306Z,88.20
2022-09-27T21:28:34.292Z,87.78
2022-09-27T21:30:52.168Z,88.69
2022-09-27T21:33:09.162Z,88.71
2022-09-27T21:35:26.218Z,88.70
2022-09-27T21:37:44.013Z,88.37
2022-09-27T21:40:01.010Z,88.68
2022-09-27T21:42:18.323Z,89.21
2022-09-27T21:44:35.183Z,89.12
2022-09-27T21:46:52.512Z,88.99
2022-09-27T21:49:09.608Z,88.71
2022-09-27T21:51:26.749Z,89.91
2022-09-27T21:53:44.661Z,89.63
2022-09-27T21:56:02.618Z,89.69
2022-09-27T21:58:19.579Z,89.97
2022-09-27T22:00:36.944Z,89.95
2022-09-27T22:02:54.988Z,89.63
2022-09-27T22:05:13.395Z,90.01
2022-09-27T22:07:30.704Z,90.20
2022-09-27T22:09:47.656Z,90.96
2022-09-27T22:12:04.533Z,89.51
2022-09-27T22:14:22.447Z,90.14
2022-09-27T22:16:39.680Z,90.46
2022-09-27T22:18:56.653Z,90.56
2022-09-27T22:21:14.963Z,89.70
2022-09-27T22:23:32.273Z,90.72
2022-09-27T22:25:50.238Z,90.59
2022-09-27T22:28:07.145Z,89.83
2022-09-27T22:30:24.329Z,90.72
2022-09-27T22:32:41.249Z,90.49
2022-09-27T22:34:58.230Z,90.05
2022-09-27T22:37:16.368Z,90.41
2022-09-27T22:39:33.574Z,90.35
2022-09-27T22:41:50.578Z,90.72
2022-09-27T22:44:07.533Z,90.83
2022-09-27T22:46:24.571Z,90.31
2022-09-27T22:48:41.559Z,89.92
2022-09-27T22:50:59.970Z,91.22
2022-09-27T22:53:17.231Z,91.15
2022-09-27T22:55:34.201Z,90.36
2022-09-27T22:57:51.375Z,91.62
2022-09-27T23:00:08.557Z,90.24
2022-09-27T23:02:25.848Z,90.22
2022-09-27T23:04:43.821Z,90.18
2022-09-27T23:07:01.043Z,91.06
2022-09-27T23:09:18.211Z,90.58
2022-09-27T23:11:35.414Z,90.48
2022-09-27T23:13:52.430Z,91.43
2022-09-27T23:16:09.541Z,90.42
2022-09-27T23:18:28.231Z,91.25
2022-09-27T23:20:45.235Z,90.32
2022-09-27T23:23:02.419Z,91.21
2022-09-27T23:25:20.727Z,90.19
2022-09-27T23:27:38.640Z,91.22
2022-09-27T23:29:55.609Z,90.60
2022-09-27T23:32:12.657Z,91.53
2022-09-27T23:34:29.979Z,90.49
2022-09-27T23:36:48.961Z,90.64
2022-09-27T23:39:05.978Z,91.29
2022-09-27T23:41:23.868Z,90.86
2022-09-27T23:43:40.943Z,91.08
2022-09-27T23:45:57.958Z,90.86
2022-09-27T23:48:16.243Z,92.19
2022-09-27T23:50:33.563Z,92.22
2022-09-27T23:52:51.591Z,91.07
2022-09-27T23:55:08.910Z,92.57
2022-09-27T23:57:27.109Z,90.80
2022-09-27T23:59:44.422Z,91.57
